Terminal Aerodrome Forecast
Issued by NWS

Current Version | Previous Version | Text Only | Print | Product List | Glossary On
Versions: 1 2 3 4 5 6 7 8 9 10 11 12 13
000
FTUS44 KLZK 210500 RRA
TAFHRO
TAF
KHRO 210541Z 2106/2206 17005KT P6SM SKC
     FM211500 20010G18KT P6SM SCT040
     FM220100 18006KT P6SM FEW250=

USA.gov is the U.S. government's official web portal to all federal, state and local government web resources and services.